Time;durP1;ratioP1;P1;durP2;ratioP2;P2;SDS_P1;SDS_P2;PMS_P1;PMS_P2;Temp;Humidity;BMP_temperature;BMP_pressure;BME280_temperature;BME280_humidity;BME280_pressure;Samples;Min_cycle;Max_cycle;Signal;HPM_P1;HPM_P2
2022/08/04 00:01:38;;;;;;;2.58;1.75;;;26.30;94.70;;;;;;5032060;28;20026;-76
2022/08/04 00:04:20;;;;;;;2.55;1.83;;;26.20;94.80;;;;;;5031928;28;20064;-76
2022/08/04 00:06:59;;;;;;;2.10;2.00;;;26.20;94.90;;;;;;5031983;28;20403;-76
2022/08/04 00:09:33;;;;;;;1.83;1.73;;;26.20;95.00;;;;;;5014161;28;20047;-76
2022/08/04 00:12:01;;;;;;;1.80;1.70;;;26.10;95.20;;;;;;5031946;28;20026;-75
2022/08/04 00:14:32;;;;;;;2.17;2.05;;;26.10;95.40;;;;;;5031604;28;20025;-76
2022/08/04 00:16:58;;;;;;;1.98;1.88;;;26.10;95.50;;;;;;5031679;28;20031;-76
2022/08/04 00:19:34;;;;;;;1.58;1.48;;;26.10;95.50;;;;;;5031805;28;20108;-76
2022/08/04 00:22:04;;;;;;;1.90;1.80;;;26.10;95.70;;;;;;5031617;28;20531;-76
2022/08/04 00:24:30;;;;;;;2.97;1.85;;;26.00;95.60;;;;;;5031531;28;20240;-76
2022/08/04 00:26:56;;;;;;;2.30;2.13;;;26.00;95.80;;;;;;5031646;28;20426;-76
2022/08/04 00:29:23;;;;;;;2.13;2.03;;;26.00;95.80;;;;;;5031676;28;20028;-76
2022/08/04 00:31:49;;;;;;;3.20;1.63;;;25.90;95.90;;;;;;5031399;28;20132;-75
2022/08/04 00:34:16;;;;;;;2.05;1.60;;;25.90;96.00;;;;;;5031407;28;20431;-76
2022/08/04 00:36:43;;;;;;;2.08;1.90;;;25.80;96.20;;;;;;5031447;28;20032;-76
2022/08/04 00:39:12;;;;;;;1.80;1.70;;;25.90;96.20;;;;;;5031644;28;20506;-76
2022/08/04 00:41:51;;;;;;;2.00;1.80;;;25.90;96.30;;;;;;5031293;28;20128;-76
2022/08/04 00:44:29;;;;;;;1.30;1.30;;;25.80;96.70;;;;;;5031171;28;20059;-76
2022/08/04 00:47:04;;;;;;;2.10;2.00;;;25.90;96.40;;;;;;5013510;28;20032;-76
2022/08/04 00:49:46;;;;;;;1.70;1.60;;;25.90;96.60;;;;;;5013839;28;20497;-76
2022/08/04 00:52:24;;;;;;;2.05;1.80;;;25.80;96.60;;;;;;5013472;28;20033;-75
2022/08/04 00:55:14;;;;;;;1.90;1.80;;;25.80;96.60;;;;;;5031304;28;20499;-76
2022/08/04 00:58:01;;;;;;;2.20;2.00;;;25.80;96.60;;;;;;5014488;28;20025;-76
2022/08/04 01:00:36;;;;;;;1.95;1.85;;;25.80;96.50;;;;;;5035338;28;20112;-76
2022/08/04 01:03:41;;;;;;;1.90;1.80;;;25.80;96.70;;;;;;5017663;28;20475;-76
2022/08/04 01:06:55;;;;;;;3.92;1.70;;;25.80;96.90;;;;;;5035225;28;20024;-76
2022/08/04 01:09:48;;;;;;;3.35;1.70;;;25.70;96.80;;;;;;5017532;28;20013;-76
2022/08/04 01:12:32;;;;;;;1.95;1.85;;;25.70;96.90;;;;;;5017272;28;20025;-75
2022/08/04 01:15:07;;;;;;;1.73;1.73;;;25.70;97.00;;;;;;5035211;28;20017;-76
2022/08/04 01:17:48;;;;;;;2.38;2.28;;;25.70;97.10;;;;;;5034948;28;20044;-76
2022/08/04 01:20:23;;;;;;;1.90;1.60;;;25.70;97.30;;;;;;5017452;28;20037;-76
2022/08/04 01:23:13;;;;;;;2.33;1.95;;;25.60;97.30;;;;;;5031743;28;20033;-76
2022/08/04 01:25:57;;;;;;;2.20;1.70;;;25.60;97.30;;;;;;5034794;28;20053;-76
2022/08/04 01:28:25;;;;;;;2.58;1.67;;;25.60;97.40;;;;;;5019354;28;20124;-75
2022/08/04 01:31:21;;;;;;;2.45;1.67;;;25.60;97.40;;;;;;5034791;28;20031;-76
2022/08/04 01:33:48;;;;;;;1.85;1.63;;;25.60;97.50;;;;;;5031675;28;20116;-75
2022/08/04 01:36:14;;;;;;;1.92;1.83;;;25.70;97.50;;;;;;5034579;28;20045;-76
2022/08/04 01:38:42;;;;;;;1.55;1.55;;;25.70;97.50;;;;;;5016907;28;20022;-76
2022/08/04 01:41:12;;;;;;;2.22;1.50;;;25.60;97.60;;;;;;5034908;28;20026;-75
2022/08/04 01:43:43;;;;;;;1.75;1.65;;;25.50;97.70;;;;;;5034498;28;20045;-76
2022/08/04 01:46:13;;;;;;;1.70;1.60;;;25.60;97.80;;;;;;5034631;28;20093;-76
2022/08/04 01:48:43;;;;;;;1.73;1.63;;;25.60;97.80;;;;;;5034693;28;20033;-76
2022/08/04 01:51:09;;;;;;;1.77;1.67;;;25.60;97.80;;;;;;5034525;28;20052;-76
2022/08/04 01:53:40;;;;;;;1.60;1.50;;;25.60;98.00;;;;;;5016695;28;20475;-76
2022/08/04 01:56:07;;;;;;;;;;;25.60;97.90;;;;;;5034607;28;20071;-76
2022/08/04 01:58:35;;;;;;;2.08;1.63;;;25.60;97.90;;;;;;5034298;28;19963;-76
2022/08/04 02:01:07;;;;;;;2.10;1.90;;;25.60;97.90;;;;;;5034470;28;20017;-76
2022/08/04 02:03:33;;;;;;;;;;;25.60;98.00;;;;;;5034775;28;20387;-76
2022/08/04 02:06:37;;;;;;;1.90;1.80;;;25.60;97.90;;;;;;5034309;28;19905;-76
2022/08/04 02:09:29;;;;;;;2.70;1.60;;;25.60;98.10;;;;;;4972535;28;20068;-76
2022/08/04 02:12:18;;;;;;;2.10;2.00;;;25.60;98.00;;;;;;5016813;28;20037;-76
2022/08/04 02:15:06;;;;;;;2.35;1.80;;;25.60;98.40;;;;;;5016122;28;20025;-76
2022/08/04 02:17:51;;;;;;;1.80;1.70;;;25.50;98.00;;;;;;5016054;28;20116;-76
2022/08/04 02:20:27;;;;;;;2.15;2.05;;;25.50;98.40;;;;;;5033957;28;20037;-76
2022/08/04 02:23:06;;;;;;;1.67;1.58;;;25.50;98.30;;;;;;5033986;28;20025;-76
2022/08/04 02:26:02;;;;;;;1.88;1.75;;;25.50;98.20;;;;;;5016078;28;20188;-76
2022/08/04 02:28:38;;;;;;;2.03;1.92;;;25.50;98.20;;;;;;4996225;28;20045;-75
2022/08/04 02:31:12;;;;;;;2.83;1.95;;;25.50;98.20;;;;;;5033636;28;20029;-75
2022/08/04 02:33:44;;;;;;;1.92;1.83;;;25.60;98.30;;;;;;5033599;28;20025;-76
2022/08/04 02:36:26;;;;;;;3.85;2.47;;;25.60;98.20;;;;;;5033579;28;20395;-76
2022/08/04 02:38:52;;;;;;;2.00;1.90;;;25.60;98.20;;;;;;5033481;28;20168;-75
2022/08/04 02:41:20;;;;;;;1.90;1.80;;;25.60;98.10;;;;;;5033759;28;20068;-76
2022/08/04 02:43:48;;;;;;;2.03;1.88;;;25.60;98.10;;;;;;5033499;28;20403;-75
2022/08/04 02:46:17;;;;;;;2.28;1.75;;;25.60;98.30;;;;;;5033392;28;20022;-76
2022/08/04 02:48:45;;;;;;;1.73;1.63;;;25.60;98.40;;;;;;5033484;28;20037;-76
2022/08/04 02:51:13;;;;;;;1.80;1.70;;;25.50;98.30;;;;;;5033387;28;20026;-76
2022/08/04 02:53:40;;;;;;;2.20;2.10;;;25.50;98.70;;;;;;5033388;28;20101;-76
2022/08/04 02:56:08;;;;;;;2.28;2.17;;;25.50;98.80;;;;;;5033286;28;20029;-76
2022/08/04 02:58:35;;;;;;;1.90;1.80;;;25.50;99.00;;;;;;5033015;28;20026;-76
2022/08/04 03:01:03;;;;;;;1.90;1.80;;;25.50;98.80;;;;;;5033147;28;20028;-76
2022/08/04 03:04:03;;;;;;;2.17;2.00;;;25.50;99.00;;;;;;5033195;28;20470;-76
2022/08/04 03:07:06;;;;;;;7.13;2.40;;;25.50;99.00;;;;;;5008322;28;20056;-76
2022/08/04 03:09:56;;;;;;;2.45;2.10;;;25.40;99.30;;;;;;5032956;28;20033;-76
2022/08/04 03:12:37;;;;;;;2.17;2.08;;;25.40;99.20;;;;;;5015188;28;20033;-75
2022/08/04 03:15:02;;;;;;;3.05;2.13;;;25.40;99.30;;;;;;5032818;28;20026;-76
2022/08/04 03:17:52;;;;;;;2.78;2.05;;;25.40;99.40;;;;;;5033056;28;20407;-76
2022/08/04 03:20:50;;;;;;;1.90;1.80;;;25.40;99.60;;;;;;5032755;28;20080;-76
2022/08/04 03:23:39;;;;;;;2.00;1.90;;;25.30;99.60;;;;;;5011929;28;20021;-76
2022/08/04 03:26:29;;;;;;;2.20;2.10;;;25.30;99.60;;;;;;5032758;28;20387;-76
2022/08/04 03:29:33;;;;;;;2.25;1.90;;;25.40;99.60;;;;;;5032611;28;20160;-76
2022/08/04 03:32:42;;;;;;;1.83;1.73;;;25.40;99.70;;;;;;5032577;28;20029;-76
2022/08/04 03:35:26;;;;;;;2.15;2.05;;;25.50;99.90;;;;;;5035064;28;20045;-76
2022/08/04 03:38:29;;;;;;;2.20;1.90;;;25.50;99.90;;;;;;5014859;28;20120;-76
2022/08/04 03:41:22;;;;;;;1.70;1.60;;;25.40;99.90;;;;;;5032577;28;20022;-76
2022/08/04 03:44:21;;;;;;;2.58;2.38;;;25.40;99.90;;;;;;5032172;28;20050;-76
2022/08/04 03:47:04;;;;;;;2.30;2.17;;;25.50;99.90;;;;;;5032447;28;20120;-77
2022/08/04 03:50:01;;;;;;;2.22;1.95;;;25.50;99.90;;;;;;5014771;28;20026;-76
2022/08/04 03:55:43;;;;;;;1.85;1.75;;;25.50;99.40;;;;;;5032347;28;20546;-76
2022/08/04 03:58:42;;;;;;;5.88;2.40;;;25.50;99.60;;;;;;5031969;28;20472;-77
2022/08/04 04:01:49;;;;;;;2.17;2.03;;;25.40;99.80;;;;;;5031940;28;20096;-77
2022/08/04 04:04:40;;;;;;;2.00;1.90;;;25.30;99.90;;;;;;4998446;28;20155;-77
2022/08/04 04:07:18;;;;;;;5.30;2.20;;;25.30;99.90;;;;;;4994467;28;20091;-77
2022/08/04 04:10:06;;;;;;;2.00;1.90;;;25.20;99.90;;;;;;5031938;28;20033;-77
2022/08/04 04:13:07;;;;;;;3.35;2.00;;;25.10;99.90;;;;;;5031815;28;20271;-77
2022/08/04 04:15:51;;;;;;;2.88;2.00;;;25.20;99.90;;;;;;5006080;28;20109;-77
2022/08/04 04:18:41;;;;;;;2.13;2.00;;;25.20;99.90;;;;;;5030849;28;20036;-77
2022/08/04 04:21:12;;;;;;;2.05;1.95;;;25.20;99.90;;;;;;5031888;28;20062;-76
2022/08/04 04:23:44;;;;;;;1.92;1.83;;;25.30;99.90;;;;;;5031689;28;20033;-77
2022/08/04 04:26:39;;;;;;;3.67;1.98;;;25.30;99.90;;;;;;5031847;28;20116;-76
2022/08/04 04:29:05;;;;;;;2.72;2.53;;;25.20;99.90;;;;;;5031576;28;20384;-76
2022/08/04 04:31:46;;;;;;;1.90;1.80;;;25.20;99.90;;;;;;5031556;28;20037;-77
2022/08/04 04:34:30;;;;;;;2.15;1.88;;;25.20;99.90;;;;;;5031397;28;20076;-76
2022/08/04 04:37:14;;;;;;;2.30;2.20;;;25.10;99.90;;;;;;5031697;28;20037;-76
2022/08/04 04:40:26;;;;;;;2.20;2.10;;;25.20;99.90;;;;;;5031676;28;20551;-76
2022/08/04 04:42:58;;;;;;;2.63;1.98;;;25.20;99.90;;;;;;5031810;28;20026;-77
2022/08/04 04:45:51;;;;;;;4.53;2.10;;;25.20;99.90;;;;;;5031606;28;20049;-77
2022/08/04 04:48:23;;;;;;;5.97;2.53;;;25.20;99.90;;;;;;5031594;28;20056;-77
2022/08/04 04:51:07;;;;;;;2.13;2.03;;;25.20;99.90;;;;;;5031827;28;20022;-76
2022/08/04 04:53:57;;;;;;;2.10;2.00;;;25.20;99.90;;;;;;5031653;28;20025;-76
2022/08/04 04:56:47;;;;;;;2.17;1.95;;;25.30;99.90;;;;;;5031683;28;20033;-76
2022/08/04 04:59:17;;;;;;;3.80;2.03;;;25.20;99.90;;;;;;5032288;28;20065;-76
2022/08/04 05:02:17;;;;;;;2.25;2.15;;;25.30;99.90;;;;;;5014796;28;20497;-76
2022/08/04 05:04:48;;;;;;;2.10;2.00;;;25.40;99.90;;;;;;5014617;28;20492;-76
2022/08/04 05:07:40;;;;;;;2.08;1.98;;;25.30;99.90;;;;;;5032649;28;20051;-77
2022/08/04 05:10:33;;;;;;;2.38;2.17;;;25.40;99.90;;;;;;5032647;28;20108;-76
2022/08/04 05:13:32;;;;;;;2.63;2.47;;;25.40;99.90;;;;;;4965603;28;20045;-76
2022/08/04 05:16:08;;;;;;;3.53;1.88;;;25.40;99.80;;;;;;5014107;28;20029;-76
2022/08/04 05:18:39;;;;;;;3.28;2.33;;;25.50;99.90;;;;;;5031515;28;20025;-76
2022/08/04 05:21:32;;;;;;;2.00;1.90;;;25.50;99.90;;;;;;5028388;28;20025;-76
2022/08/04 05:24:04;;;;;;;3.00;2.20;;;25.40;99.90;;;;;;5014808;28;20038;-76
2022/08/04 05:26:34;;;;;;;1.90;1.80;;;25.40;99.90;;;;;;5029830;28;20095;-76
2022/08/04 05:29:06;;;;;;;2.20;2.00;;;25.40;99.90;;;;;;5030604;28;20018;-76
2022/08/04 05:31:33;;;;;;;;;;;25.50;99.90;;;;;;5013043;28;20032;-76
2022/08/04 05:34:16;;;;;;;2.40;2.20;;;25.50;99.90;;;;;;5031905;28;19912;-77
2022/08/04 05:37:04;;;;;;;2.15;2.05;;;25.50;99.90;;;;;;5013590;28;20395;-76
2022/08/04 05:39:41;;;;;;;2.08;1.98;;;25.60;99.90;;;;;;5029917;28;20029;-76
2022/08/04 05:42:10;;;;;;;2.40;2.20;;;25.60;99.90;;;;;;5011528;28;20597;-76
2022/08/04 05:44:37;;;;;;;2.00;1.90;;;25.70;99.90;;;;;;5031437;28;20084;-76
2022/08/04 05:47:05;;;;;;;2.75;2.33;;;25.70;99.90;;;;;;5033036;28;20075;-76
2022/08/04 05:49:32;;;;;;;2.33;2.22;;;25.80;99.80;;;;;;5033004;28;20056;-76
2022/08/04 05:52:02;;;;;;;2.47;2.28;;;25.80;99.80;;;;;;5032537;28;20038;-77
2022/08/04 05:54:31;;;;;;;4.03;1.90;;;25.90;99.90;;;;;;5033635;28;20076;-76
2022/08/04 05:56:57;;;;;;;2.50;2.30;;;25.90;99.90;;;;;;5034535;28;20014;-77
2022/08/04 05:59:25;;;;;;;2.70;2.20;;;26.00;99.90;;;;;;5016954;28;20021;-76
2022/08/04 06:01:54;;;;;;;1.85;1.75;;;26.10;99.60;;;;;;5034342;28;20025;-77
2022/08/04 06:04:21;;;;;;;2.13;2.03;;;26.10;99.50;;;;;;5034329;28;20040;-76
2022/08/04 06:06:47;;;;;;;2.83;2.28;;;26.10;99.60;;;;;;5034382;28;20022;-77
2022/08/04 06:09:14;;;;;;;2.15;1.92;;;26.20;99.40;;;;;;5034444;28;20551;-76
2022/08/04 06:11:42;;;;;;;2.20;2.10;;;26.20;99.40;;;;;;5034287;28;20029;-77
2022/08/04 06:14:09;;;;;;;2.33;2.13;;;26.30;98.90;;;;;;5033999;28;20025;-76
2022/08/04 06:16:38;;;;;;;2.50;2.30;;;26.30;98.60;;;;;;5034335;28;20061;-76
2022/08/04 06:19:10;;;;;;;2.85;2.40;;;26.40;99.20;;;;;;5034250;28;20025;-76
2022/08/04 06:21:41;;;;;;;4.38;1.77;;;26.40;98.40;;;;;;5033973;28;20057;-76
2022/08/04 06:24:09;;;;;;;;;;;26.50;98.50;;;;;;5014885;28;20072;-76
2022/08/04 06:26:36;;;;;;;1.92;1.83;;;26.50;98.70;;;;;;5034183;28;20363;-76
2022/08/04 06:29:03;;;;;;;1.98;1.88;;;26.50;98.10;;;;;;5019366;28;20564;-76
2022/08/04 06:31:42;;;;;;;1.88;1.77;;;26.50;98.00;;;;;;5014285;28;20056;-76
2022/08/04 06:34:11;;;;;;;2.00;1.80;;;26.60;98.40;;;;;;5014093;28;20033;-76
2022/08/04 06:36:39;;;;;;;2.33;1.92;;;26.70;97.40;;;;;;5014223;28;20054;-76
2022/08/04 06:39:07;;;;;;;2.00;1.80;;;26.80;96.90;;;;;;5013858;28;20508;-76
2022/08/04 06:41:33;;;;;;;7.88;2.38;;;26.80;96.80;;;;;;5013979;28;20032;-76
2022/08/04 06:44:06;;;;;;;2.72;2.53;;;26.90;96.60;;;;;;5013683;28;20491;-76
2022/08/04 06:46:34;;;;;;;2.05;1.95;;;26.90;96.80;;;;;;5013912;28;20032;-76
2022/08/04 06:49:00;;;;;;;3.75;2.58;;;27.00;97.10;;;;;;5013846;28;20032;-76
2022/08/04 06:51:29;;;;;;;6.35;2.90;;;27.00;97.00;;;;;;5013655;28;20018;-76
2022/08/04 06:53:55;;;;;;;2.45;2.22;;;27.10;96.70;;;;;;4996064;28;20022;-76
2022/08/04 06:56:23;;;;;;;2.58;2.47;;;27.10;96.80;;;;;;5013045;28;20033;-76
2022/08/04 06:58:52;;;;;;;3.90;2.08;;;27.10;97.00;;;;;;5008634;28;20041;-76
2022/08/04 07:01:19;;;;;;;2.22;2.13;;;27.20;96.40;;;;;;5033181;28;20026;-77
2022/08/04 07:03:46;;;;;;;2.20;2.00;;;27.30;96.50;;;;;;5015509;28;20564;-75
2022/08/04 07:06:12;;;;;;;3.55;3.35;;;27.30;95.70;;;;;;5032985;28;20476;-78
2022/08/04 07:08:39;;;;;;;2.95;2.85;;;27.30;96.00;;;;;;5033324;28;20386;-78
2022/08/04 07:11:05;;;;;;;2.67;2.08;;;27.30;96.10;;;;;;5034277;28;20033;-78
2022/08/04 07:13:31;;;;;;;2.65;1.92;;;27.40;95.90;;;;;;5034262;28;20028;-78
2022/08/04 07:15:59;;;;;;;2.08;1.98;;;27.30;95.60;;;;;;5032938;28;20476;-78
2022/08/04 07:18:25;;;;;;;3.35;2.20;;;27.40;96.20;;;;;;5031086;28;20017;-78
2022/08/04 07:20:52;;;;;;;6.82;2.28;;;27.50;95.60;;;;;;5031202;28;20056;-78
2022/08/04 07:23:23;;;;;;;3.78;2.17;;;27.50;94.90;;;;;;5031126;28;20028;-78
2022/08/04 07:25:53;;;;;;;3.38;2.40;;;27.50;94.50;;;;;;5033649;28;20108;-78
2022/08/04 07:28:20;;;;;;;2.95;2.28;;;27.60;94.20;;;;;;5024136;28;20033;-78
2022/08/04 07:30:48;;;;;;;2.10;2.00;;;27.60;94.60;;;;;;5011522;28;20112;-78
2022/08/04 07:33:16;;;;;;;3.25;2.10;;;27.60;95.00;;;;;;5015298;28;20030;-78
2022/08/04 07:35:42;;;;;;;2.78;2.05;;;27.70;94.30;;;;;;5012855;28;20526;-78
2022/08/04 07:38:10;;;;;;;2.30;2.10;;;27.80;94.60;;;;;;5012910;28;20030;-78
2022/08/04 07:40:36;;;;;;;3.42;2.28;;;27.80;94.00;;;;;;5012655;28;20053;-78
2022/08/04 07:43:02;;;;;;;3.65;2.10;;;27.90;93.80;;;;;;5012710;28;20049;-77
2022/08/04 07:45:29;;;;;;;6.47;2.85;;;28.00;94.20;;;;;;5012722;28;20085;-77
2022/08/04 07:47:55;;;;;;;2.72;2.13;;;28.00;93.50;;;;;;5015693;28;20034;-77
2022/08/04 07:50:22;;;;;;;3.58;1.55;;;28.00;93.30;;;;;;5032391;28;20025;-77
2022/08/04 07:52:48;;;;;;;3.20;1.98;;;28.10;92.70;;;;;;5032305;28;20029;-78
2022/08/04 07:55:15;;;;;;;2.42;1.83;;;28.10;92.50;;;;;;5032422;28;20029;-78
2022/08/04 07:57:41;;;;;;;2.70;2.05;;;28.10;93.00;;;;;;5028589;28;20025;-78
2022/08/04 08:00:09;;;;;;;1.70;1.60;;;28.10;92.30;;;;;;5012596;28;20072;-77
2022/08/04 08:02:36;;;;;;;3.72;2.05;;;28.20;93.00;;;;;;5012333;28;20018;-77
2022/08/04 08:05:02;;;;;;;5.45;1.92;;;28.20;93.30;;;;;;5012391;28;20061;-77
2022/08/04 08:07:27;;;;;;;3.80;1.90;;;28.30;92.60;;;;;;5011387;28;20069;-78
2022/08/04 08:09:53;;;;;;;2.97;2.30;;;28.30;92.80;;;;;;5012419;28;20029;-77
2022/08/04 08:12:19;;;;;;;6.68;2.53;;;28.30;92.40;;;;;;5012213;28;20022;-78
2022/08/04 08:14:45;;;;;;;1.67;1.52;;;28.40;91.50;;;;;;5012319;28;20053;-77
2022/08/04 08:17:12;;;;;;;3.58;2.10;;;28.50;91.10;;;;;;5012000;28;20022;-78
2022/08/04 08:19:38;;;;;;;1.83;1.73;;;28.50;92.20;;;;;;5012276;28;20365;-77
2022/08/04 08:22:04;;;;;;;3.80;2.45;;;28.60;92.00;;;;;;4994605;28;20089;-78
2022/08/04 08:24:33;;;;;;;1.67;1.50;;;28.60;91.90;;;;;;5011992;28;20077;-78
2022/08/04 08:27:03;;;;;;;1.80;1.70;;;28.60;91.10;;;;;;5012060;28;20084;-78
2022/08/04 08:29:29;;;;;;;4.85;1.75;;;28.80;90.50;;;;;;4994516;28;20018;-77
2022/08/04 08:31:55;;;;;;;3.53;1.60;;;28.90;89.20;;;;;;5011825;28;20049;-78
2022/08/04 08:34:22;;;;;;;1.98;1.88;;;29.00;88.40;;;;;;5012085;28;20022;-78
2022/08/04 08:37:09;;;;;;;1.67;1.58;;;28.90;88.60;;;;;;5011971;28;20076;-78
2022/08/04 08:39:43;;;;;;;3.75;1.98;;;28.90;88.00;;;;;;4994295;28;20034;-78
2022/08/04 08:42:20;;;;;;;3.63;1.65;;;29.00;87.70;;;;;;5011792;28;20030;-77
2022/08/04 08:44:55;;;;;;;4.85;2.00;;;29.00;86.60;;;;;;5011538;28;20049;-78
2022/08/04 08:47:44;;;;;;;4.10;2.00;;;29.00;87.40;;;;;;5011875;28;20551;-78
2022/08/04 08:50:31;;;;;;;1.60;1.50;;;29.00;87.70;;;;;;4965962;28;20042;-78
2022/08/04 08:53:37;;;;;;;3.45;1.80;;;29.10;87.00;;;;;;5011835;28;20022;-78
2022/08/04 08:56:34;;;;;;;1.80;1.70;;;29.10;86.30;;;;;;4991015;28;20508;-78
2022/08/04 08:59:06;;;;;;;1.80;1.70;;;29.20;88.40;;;;;;5011406;28;20492;-78
2022/08/04 09:01:52;;;;;;;2.13;1.98;;;29.20;87.50;;;;;;5011655;28;20068;-78
2022/08/04 09:04:30;;;;;;;2.03;1.80;;;29.20;88.30;;;;;;4993979;28;20056;-78
2022/08/04 09:07:31;;;;;;;2.55;1.75;;;29.20;87.60;;;;;;5011749;28;20058;-78
2022/08/04 09:10:15;;;;;;;3.50;1.88;;;29.30;88.80;;;;;;5011664;28;20018;-78
2022/08/04 09:12:53;;;;;;;1.60;1.50;;;29.30;88.20;;;;;;4994017;28;20026;-78
2022/08/04 09:15:29;;;;;;;2.25;1.60;;;29.40;88.50;;;;;;5011627;28;20036;-78
2022/08/04 09:18:25;;;;;;;4.72;1.90;;;29.40;88.60;;;;;;4993901;28;20038;-78
2022/08/04 09:21:18;;;;;;;1.60;1.50;;;29.50;89.00;;;;;;4984699;28;20034;-78
2022/08/04 09:24:22;;;;;;;2.20;1.77;;;29.50;87.70;;;;;;5015235;28;20046;-77
2022/08/04 09:26:57;;;;;;;4.35;1.65;;;29.60;85.60;;;;;;4997628;28;20022;-78
2022/08/04 09:29:25;;;;;;;4.20;1.85;;;29.70;83.50;;;;;;5014768;28;20041;-78
2022/08/04 09:32:01;;;;;;;3.30;1.80;;;29.80;81.90;;;;;;5037578;28;20036;-78
2022/08/04 09:34:51;;;;;;;1.98;1.77;;;29.80;81.60;;;;;;5034812;28;20025;-77
2022/08/04 09:37:35;;;;;;;2.08;1.65;;;29.70;82.20;;;;;;5017094;28;20037;-77
2022/08/04 09:40:25;;;;;;;2.70;2.50;;;29.90;85.50;;;;;;5013928;28;20017;-78
2022/08/04 09:43:04;;;;;;;2.50;1.85;;;30.10;83.60;;;;;;5034969;28;20029;-79
2022/08/04 09:45:43;;;;;;;2.05;1.48;;;30.20;83.90;;;;;;5034643;28;20053;-78
2022/08/04 09:48:41;;;;;;;2.92;1.50;;;30.30;82.30;;;;;;5017117;28;20033;-77
2022/08/04 09:51:33;;;;;;;3.33;1.70;;;30.30;82.70;;;;;;5034052;28;20041;-77
2022/08/04 09:54:30;;;;;;;2.05;1.75;;;30.30;80.20;;;;;;5020493;28;20037;-77
2022/08/04 09:57:14;;;;;;;2.72;1.48;;;30.30;81.80;;;;;;5034602;28;20387;-78
2022/08/04 09:59:51;;;;;;;1.75;1.55;;;30.40;82.30;;;;;;5034579;28;20029;-78
2022/08/04 10:02:20;;;;;;;1.70;1.60;;;30.50;78.10;;;;;;5016880;28;20037;-78
2022/08/04 10:04:49;;;;;;;4.00;1.52;;;30.40;78.10;;;;;;5034456;28;20115;-78
2022/08/04 10:07:28;;;;;;;1.45;1.35;;;30.40;79.40;;;;;;5034161;28;20049;-78
2022/08/04 10:10:21;;;;;;;2.50;1.30;;;30.70;76.30;;;;;;5034308;28;20025;-78
2022/08/04 10:13:17;;;;;;;1.92;1.83;;;30.90;75.60;;;;;;5016382;28;20384;-78
2022/08/04 10:16:19;;;;;;;2.75;1.27;;;30.90;72.00;;;;;;5027588;28;20083;-78
2022/08/04 10:18:47;;;;;;;2.85;1.27;;;30.90;75.30;;;;;;5015869;28;20034;-78
2022/08/04 10:21:25;;;;;;;1.60;1.50;;;31.00;75.60;;;;;;5016401;28;20542;-78
2022/08/04 10:23:57;;;;;;;2.25;1.40;;;31.00;70.50;;;;;;5033812;28;20293;-77
2022/08/04 10:26:44;;;;;;;2.38;1.65;;;30.90;69.30;;;;;;5033936;28;20083;-78
2022/08/04 10:29:23;;;;;;;3.05;1.77;;;31.20;70.50;;;;;;5033852;28;20397;-77
2022/08/04 10:32:03;;;;;;;1.75;1.70;;;31.20;70.50;;;;;;5015445;28;20033;-78
2022/08/04 10:34:32;;;;;;;2.47;1.63;;;31.30;70.20;;;;;;5033592;28;20088;-78
2022/08/04 10:37:20;;;;;;;1.60;1.50;;;31.40;69.90;;;;;;5016070;28;20033;-77
2022/08/04 10:42:44;;;;;;;;;;;31.50;68.30;;;;;;5034176;28;20072;-78
2022/08/04 10:45:18;;;;;;;3.05;1.50;;;31.70;68.70;;;;;;5033642;28;19917;-78
2022/08/04 10:48:09;;;;;;;1.48;1.38;;;31.80;71.60;;;;;;5033753;28;20022;-78
2022/08/04 10:50:39;;;;;;;1.77;1.67;;;31.70;70.60;;;;;;5015889;28;20018;-78
2022/08/04 10:53:21;;;;;;;1.83;1.60;;;31.80;67.20;;;;;;5033219;28;20100;-78
2022/08/04 10:56:03;;;;;;;1.88;1.77;;;31.70;67.00;;;;;;5033554;28;20022;-78
2022/08/04 10:58:55;;;;;;;1.80;1.63;;;31.70;69.80;;;;;;5029171;28;20029;-77
2022/08/04 11:01:42;;;;;;;1.58;1.48;;;31.90;67.10;;;;;;5042494;28;20063;-77
2022/08/04 11:04:31;;;;;;;1.65;1.35;;;31.90;67.70;;;;;;5035156;28;20033;-78
2022/08/04 11:06:59;;;;;;;1.55;1.48;;;31.90;68.30;;;;;;5042366;28;20044;-78
2022/08/04 11:09:25;;;;;;;1.98;1.75;;;32.20;67.00;;;;;;5053224;28;20104;-78
2022/08/04 11:12:08;;;;;;;6.15;1.83;;;32.30;65.30;;;;;;5027358;28;20491;-78
2022/08/04 11:14:57;;;;;;;1.60;1.50;;;32.40;63.30;;;;;;5015271;28;20028;-78
2022/08/04 11:17:32;;;;;;;2.63;1.80;;;32.30;64.80;;;;;;5014657;28;20044;-78
2022/08/04 11:20:27;;;;;;;1.45;1.45;;;32.30;62.50;;;;;;5033191;28;20160;-78
2022/08/04 11:23:11;;;;;;;1.70;1.60;;;32.50;65.30;;;;;;5029831;28;20044;-78
2022/08/04 11:25:43;;;;;;;2.83;2.22;;;32.60;66.30;;;;;;5033017;28;20025;-78
2022/08/04 11:28:39;;;;;;;1.80;1.70;;;32.60;66.10;;;;;;5015170;28;20049;-78
2022/08/04 11:31:24;;;;;;;1.90;1.80;;;32.70;67.70;;;;;;5032924;28;20033;-78
2022/08/04 11:34:20;;;;;;;1.80;1.70;;;32.90;65.70;;;;;;5029311;28;20406;-77
2022/08/04 11:36:55;;;;;;;1.63;1.52;;;32.80;65.40;;;;;;5033043;28;20052;-78
2022/08/04 11:39:42;;;;;;;2.28;1.65;;;32.80;63.20;;;;;;5050198;28;20108;-78
2022/08/04 11:42:27;;;;;;;1.83;1.73;;;32.90;62.10;;;;;;5052367;28;20036;-78
2022/08/04 11:45:34;;;;;;;1.65;1.55;;;32.90;61.40;;;;;;5052169;28;20143;-78
2022/08/04 11:48:10;;;;;;;2.15;1.52;;;32.90;63.50;;;;;;5024416;28;20037;-78
2022/08/04 11:50:43;;;;;;;1.80;1.70;;;33.20;62.90;;;;;;5052471;28;20021;-78
2022/08/04 11:53:16;;;;;;;2.10;1.38;;;33.40;61.50;;;;;;5052199;28;20025;-78
2022/08/04 11:55:44;;;;;;;1.63;1.52;;;33.50;62.30;;;;;;5034298;28;20021;-78
2022/08/04 11:58:10;;;;;;;1.70;1.60;;;33.50;60.60;;;;;;5044551;28;20029;-78
2022/08/04 12:00:44;;;;;;;4.20;1.88;;;33.60;61.40;;;;;;5032109;28;20022;-78
2022/08/04 12:03:36;;;;;;;3.80;2.08;;;33.60;59.10;;;;;;5012713;28;20033;-78
2022/08/04 12:06:24;;;;;;;2.88;1.90;;;33.60;57.90;;;;;;5032077;28;20034;-78
2022/08/04 12:09:02;;;;;;;1.73;1.40;;;33.60;58.80;;;;;;5031943;28;20033;-78
2022/08/04 12:11:59;;;;;;;1.52;1.42;;;33.90;58.60;;;;;;5032106;28;20064;-78
2022/08/04 12:14:37;;;;;;;3.70;1.70;;;34.00;58.70;;;;;;5024231;28;20033;-78
2022/08/04 12:17:04;;;;;;;1.52;1.50;;;34.10;58.30;;;;;;5031908;28;20205;-78
2022/08/04 12:19:49;;;;;;;2.03;1.67;;;34.10;57.40;;;;;;5031729;28;20112;-77
2022/08/04 12:22:21;;;;;;;2.95;2.38;;;34.20;58.70;;;;;;5029528;28;20017;-78
2022/08/04 12:25:15;;;;;;;1.67;1.58;;;34.30;57.70;;;;;;5014040;28;20106;-78
2022/08/04 12:27:45;;;;;;;1.90;1.80;;;34.40;57.80;;;;;;5031770;28;20091;-78
2022/08/04 12:30:11;;;;;;;2.17;1.75;;;34.50;58.50;;;;;;5031742;28;20030;-78
2022/08/04 12:32:41;;;;;;;1.55;1.45;;;34.60;57.90;;;;;;5031607;28;20029;-78
2022/08/04 12:35:10;;;;;;;2.70;2.08;;;34.70;55.70;;;;;;5031635;28;20025;-78
2022/08/04 12:37:58;;;;;;;2.15;1.50;;;34.60;56.10;;;;;;5031507;28;20030;-78
2022/08/04 12:40:27;;;;;;;1.83;1.73;;;34.50;56.20;;;;;;5014460;28;20014;-78
2022/08/04 12:42:57;;;;;;;2.00;1.80;;;34.70;56.10;;;;;;5013707;28;20032;-78
2022/08/04 12:45:24;;;;;;;3.60;1.55;;;34.80;55.60;;;;;;5031380;28;20041;-78
2022/08/04 12:47:55;;;;;;;1.90;1.80;;;34.80;55.60;;;;;;5031497;28;20026;-78
2022/08/04 12:50:22;;;;;;;2.38;1.90;;;34.90;55.30;;;;;;5031452;28;20108;-78
2022/08/04 12:52:54;;;;;;;1.98;1.88;;;34.80;55.40;;;;;;5030910;28;20030;-78
2022/08/04 12:55:25;;;;;;;2.10;2.00;;;34.80;56.20;;;;;;5013471;28;20092;-78
2022/08/04 12:57:53;;;;;;;1.98;1.88;;;34.80;55.80;;;;;;5031141;28;20026;-77
2022/08/04 13:00:28;;;;;;;3.15;1.58;;;34.90;54.90;;;;;;5031576;28;20022;-77
2022/08/04 13:03:00;;;;;;;4.10;1.70;;;35.00;56.00;;;;;;5031369;28;20045;-78
2022/08/04 13:05:30;;;;;;;3.42;1.55;;;35.00;55.00;;;;;;5031444;28;20013;-77
2022/08/04 13:07:57;;;;;;;2.53;1.55;;;35.10;55.80;;;;;;5031270;28;20073;-78
2022/08/04 13:10:24;;;;;;;1.90;1.80;;;35.20;55.00;;;;;;5031447;28;20025;-78
2022/08/04 13:12:59;;;;;;;2.40;1.73;;;35.30;53.90;;;;;;5031101;28;20177;-77
2022/08/04 13:15:27;;;;;;;1.88;1.63;;;35.20;55.50;;;;;;5031155;28;20033;-78
2022/08/04 13:18:02;;;;;;;2.05;1.95;;;35.20;53.80;;;;;;5031312;28;20057;-78
2022/08/04 13:20:33;;;;;;;3.03;1.70;;;35.20;53.90;;;;;;5013604;28;20391;-78
2022/08/04 13:23:15;;;;;;;1.85;1.73;;;35.10;53.60;;;;;;5031235;28;20059;-78
2022/08/04 13:25:46;;;;;;;3.53;2.25;;;35.10;54.50;;;;;;5031091;28;20006;-78
2022/08/04 13:28:18;;;;;;;2.00;1.90;;;35.20;54.00;;;;;;5030929;28;20036;-77
2022/08/04 13:30:53;;;;;;;2.00;1.80;;;35.20;54.00;;;;;;5031041;28;20112;-78
2022/08/04 13:33:19;;;;;;;1.80;1.70;;;35.40;53.30;;;;;;5010012;28;20029;-78
2022/08/04 13:35:47;;;;;;;4.43;1.98;;;35.50;54.10;;;;;;5031176;28;20100;-78
2022/08/04 13:38:15;;;;;;;4.43;1.90;;;35.60;53.70;;;;;;5023756;28;20063;-78
2022/08/04 13:40:43;;;;;;;2.10;2.00;;;35.60;52.50;;;;;;5038913;28;20292;-77
2022/08/04 13:43:21;;;;;;;2.10;2.00;;;35.60;52.20;;;;;;5021451;28;20029;-77
2022/08/04 13:45:49;;;;;;;2.03;1.92;;;35.60;53.20;;;;;;5011119;28;20116;-77